• Join FlightAware (Why Join?)
  • Login
  • US Flag 
04:45PM EDT


 

Airport Tracker/Info


-or-


 

Live Flight TrackerFlight Track Log ✈ SWA34 ✈ 25-Apr-2013 ✈ KTUL - KSTL

Flight Track Log - Related Links

Times and Time Zones

All times are in EDT time to prevent confusion due to time zone crossing. See the SWA34 flight status page for this flight to view local times or setup timezone preferences in your user account.

Time Position Orientation Groundspeed Altitude Reporting Facility
EDT Latitude Longitude Course Direction KTS MPH feet Rate Location/Type
08:58PM 36.1956 -95.8658 84° East 155 178 1,500  Level Kansas City Center
08:59PM 36.1997 -95.8189 84° East 188 216 2,900 2,040 Climbing Kansas City Center
09:00PM 36.2122 -95.7819 67° East 202 232 4,300 2,460 Climbing Kansas City Center
09:01PM 36.2506 -95.7047 58° Northeast 253 291 7,100 2,820 Climbing Kansas City Center
09:02PM 36.2919 -95.6186 59° Northeast 282 325 10,200 3,000 Climbing Kansas City Center
09:03PM 36.3497 -95.4983 59° Northeast 331 381 13,400 2,820 Climbing Kansas City Center
09:04PM 36.3967 -95.4019 59° Northeast 353 406 16,000 2,400 Climbing Kansas City Center
09:05PM 36.4503 -95.2892 59° Northeast 372 428 18,300 2,220 Climbing Kansas City Center
09:07PM 36.5681 -95.0383 60° Northeast 413 475 23,000 2,220 Climbing Kansas City Center
09:08PM 36.6419 -94.8825 59° Northeast 428 493 25,200 1,980 Climbing Kansas City Center
09:09PM 36.7050 -94.7467 60° Northeast 445 512 27,100 1,740 Climbing Kansas City Center
09:10PM 36.7725 -94.6122 58° Northeast 454 522 28,800 1,500 Climbing Kansas City Center
09:11PM 36.8508 -94.4878 52° Northeast 456 525 30,300 1,380 Climbing Kansas City Center
09:12PM 36.9278 -94.3556 54° Northeast 464 534 31,600 1,260 Climbing Kansas City Center
09:13PM 37.0069 -94.2203 54° Northeast 477 549 32,900 600 Climbing Kansas City Center
09:14PM 37.0889 -94.0814 53° Northeast 491 565 32,900  Level Kansas City Center
09:15PM 37.1850 -93.9211 53° Northeast 493 567 32,900  Level Kansas City Center
09:16PM 37.2633 -93.7861 54° Northeast 481 554 32,900  Level Kansas City Center
09:17PM 37.3417 -93.6503 54° Northeast 478 550 33,000  Climbing Kansas City Center
09:18PM 37.4219 -93.5117 54° Northeast 485 558 33,000 -60 Level Kansas City Center
09:19PM 37.5042 -93.3689 54° Northeast 496 571 32,900 -60 Descending Kansas City Center
09:20PM 37.5864 -93.2253 54° Northeast 501 577 32,900  Level Kansas City Center
09:21PM 37.6678 -93.0831 54° Northeast 500 575 32,900  Level Kansas City Center
09:22PM 37.7486 -92.9408 54° Northeast 497 572 32,900  Level Kansas City Center
09:23PM 37.8264 -92.8022 55° Northeast 485 558 32,900  Level Kansas City Center
09:24PM 37.9064 -92.6581 55° Northeast 494 568 33,000  Climbing Kansas City Center
09:26PM 37.9861 -92.5178 54° Northeast 494 568 32,900 -60 Descending Kansas City Center
09:27PM 38.0850 -92.3492 53° Northeast 495 570 32,900 -300 Level Kansas City Center
09:28PM 38.1614 -92.2036 56° Northeast 497 572 32,300 -840 Descending Kansas City Center
09:29PM 38.2456 -92.0497 55° Northeast 488 562 31,200 -1,620 Descending Kansas City Center
09:30PM 38.3217 -91.9111 55° Northeast 479 551 29,000 -2,220 Descending Kansas City Center
09:31PM 38.3947 -91.7767 55° Northeast 466 536 26,700 -2,040 Descending Kansas City Center
09:32PM 38.4639 -91.6439 56° Northeast 453 521 24,900 -1,980 Descending Kansas City Center
09:33PM 38.5306 -91.5150 56° Northeast 439 505 22,700 -2,160 Descending Kansas City Center
09:34PM 38.5950 -91.3925 56° Northeast 420 483 20,500 -2,280 Descending Kansas City Center
09:35PM 38.6619 -91.2669 56° Northeast 400 460 18,100 -2,220 Descending Kansas City Center
09:36PM 38.6958 -91.1386 71° East 393 452 16,100 -2,100 Descending Kansas City Center
09:37PM 38.6983 -91.0036 89° East 384 442 13,900 -2,100 Descending Kansas City Center
09:38PM 38.7019 -90.8722 88° East 375 432 11,900 -1,800 Descending Kansas City Center
09:39PM 38.7050 -90.7450 88° East 363 418 10,300 -1,260 Descending Kansas City Center
09:40PM 38.7097 -90.6358 87° East 317 365 9,400 -1,140 Descending Kansas City Center
09:41PM 38.7131 -90.5333 88° East 293 337 8,000 -1,140 Descending Kansas City Center
09:42PM 38.6678 -90.4317 120° Southeast 281 323 7,100 -960 Descending Kansas City Center
09:43PM 38.6317 -90.3606 123° Southeast 265 305 6,100 -1,260 Descending Kansas City Center
09:44PM 38.6344 -90.2883 87° East 238 274 4,600 -1,440 Descending Kansas City Center
09:45PM 38.6778 -90.2544 31° Northeast 206 237 3,200 -1,500 Descending Kansas City Center
09:46PM 38.7156 -90.2914 323° Northwest 176 203 1,500 -1,260 Descending Kansas City Center
09:47PM 38.7369 -90.3367 301° West 161 185 700 -480 Descending Kansas City Center
09:48PM 38.7586 -90.3806 302° West 159 183 600 -120 Descending Kansas City Center